Latest Weather Observations for Ben Nevis

IDV60801

Issued at 11:32 pm EST Sunday 26 June 2016 (issued every 30 minutes, with the page automatically refreshed every 10 minutes)

About weather observations | Map of weather stations | Latest weather observations for VIC | Other Formats
Station Details ID: 079101 Name: BEN NEVIS Lat: -37.23 Lon: 143.20 Height: 875.0 m
Data from the previous 72 hours. | See also: Recent months at Ben Nevis
Date/Time
EST
Temp
°C
App
Temp
°C
Dew
Point
°C
Rel
Hum
%
Delta-T
°C
Wind Press
QNH
hPa
Press
MSL
hPa
Rain since
9am
mm
Dir  Spd
km/h
Gust
km/h
Spd
kts
Gust
kts
26/11:30pm 1.4 -3.6 1.3 99 0.0 NNW 17 28 9 15 - - 0.2
26/11:00pm 1.4 -3.6 1.3 99 0.0 NNW 17 30 9 16 - - 0.2
26/10:30pm 1.5 -3.1 1.4 99 0.0 NNW 15 26 8 14 - - 0.2
26/10:00pm 1.6 -3.0 1.5 99 0.0 N 15 24 8 13 - - 0.2
26/09:30pm 1.6 -3.4 1.5 99 0.0 NNW 17 26 9 14 - - 0.2
26/09:00pm 1.6 -3.0 1.5 99 0.0 NNW 15 26 8 14 - - 0.2
26/08:30pm 1.6 -3.0 1.3 98 0.1 NNW 15 24 8 13 - - 0.2
26/08:00pm 1.7 -2.5 1.4 98 0.1 N 13 20 7 11 - - 0.2
26/07:30pm 1.8 -2.4 1.5 98 0.1 N 13 22 7 12 - - 0.2
26/07:00pm 1.8 -2.4 1.4 97 0.2 NNW 13 22 7 12 - - 0.2
26/06:30pm 1.8 -2.5 1.2 96 0.2 N 13 24 7 13 - - 0.2
26/06:00pm 1.8 -2.9 1.2 96 0.2 NNW 15 24 8 13 - - 0.2
26/05:30pm 1.8 -2.5 1.2 96 0.2 N 13 24 7 13 - - 0.2
26/05:00pm 2.1 -2.5 1.5 96 0.2 NNW 15 24 8 13 - - 0.2
26/04:30pm 2.3 -1.9 1.4 94 0.4 NNW 13 24 7 13 - - 0.2
26/04:00pm 2.5 -1.7 1.8 95 0.3 NNW 13 26 7 14 - - 0.2
26/03:30pm 2.4 -1.8 1.5 94 0.4 N 13 26 7 14 - - 0.2
26/03:00pm 2.5 -1.7 1.5 93 0.4 N 13 24 7 13 - - 0.2
26/02:30pm 2.5 -2.5 1.2 91 0.5 NNW 17 33 9 18 - - 0.2
26/02:00pm 2.5 -2.2 0.7 88 0.7 NNW 15 28 8 15 - - 0.2
26/01:30pm 3.4 -1.6 1.3 86 0.9 NNW 17 26 9 14 - - 0.2
26/01:00pm 3.1 -1.6 0.7 84 1.0 N 15 32 8 17 - - 0.2
26/12:30pm 2.9 -2.2 0.5 84 1.0 N 17 28 9 15 - - 0.2
26/12:00pm 2.7 -2.8 0.3 84 1.0 N 19 35 10 19 - - 0.2
26/11:30am 2.8 -2.7 0.9 87 0.8 NNW 19 32 10 17 - - 0.2
26/11:00am 2.8 -2.3 0.7 86 0.8 N 17 30 9 16 - - 0.2
26/10:30am 2.3 -2.8 0.8 90 0.6 N 17 26 9 14 - - 0.2
26/10:00am 1.9 -3.2 0.9 93 0.4 N 17 22 9 12 - - 0.2
26/09:30am 1.3 -3.8 0.6 95 0.3 N 17 30 9 16 - - 0.2
26/09:00am 1.1 -4.4 0.5 96 0.2 N 19 30 10 16 - - 0.0
26/08:30am 0.9 -4.8 0.5 97 0.2 NNW 20 30 11 16 - - 0.0
26/08:00am 0.8 -4.9 0.5 98 0.1 NNW 20 32 11 17 - - 0.0
26/07:30am 0.6 -4.9 0.5 99 0.0 N 19 30 10 16 - - 0.0
26/07:00am 0.5 -5.0 0.4 99 0.0 N 19 30 10 16 - - 0.0
26/06:30am 0.4 -4.8 0.3 99 0.0 N 17 28 9 15 - - 0.0
26/06:00am 0.4 -4.8 0.3 99 0.0 N 17 24 9 13 - - 0.0
26/05:30am 0.4 -4.4 0.3 99 0.0 NNW 15 22 8 12 - - 0.0
26/05:00am 0.6 -4.2 0.5 99 0.0 NNW 15 22 8 12 - - 0.0
26/04:30am 0.6 -4.2 0.5 99 0.0 NNW 15 22 8 12 - - 0.0
26/04:00am 0.8 -4.3 0.7 99 0.0 NNW 17 30 9 16 - - 0.0
26/03:30am 0.9 -3.8 0.8 99 0.0 NNW 15 22 8 12 - - 0.0
26/03:00am 0.8 -3.5 0.7 99 0.0 N 13 20 7 11 - - 0.0
26/02:30am 0.9 -3.4 0.8 99 0.0 N 13 19 7 10 - - 0.0
26/02:00am 0.8 -3.5 0.7 99 0.0 N 13 19 7 10 - - 0.0
26/01:30am 1.1 -3.2 1.0 99 0.0 N 13 20 7 11 - - 0.0
26/01:00am 1.1 -2.8 1.0 99 0.0 N 11 20 6 11 - - 0.0
26/12:30am 1.2 -3.1 1.1 99 0.0 N 13 20 7 11 - - 0.0
26/12:00am 1.3 -3.0 1.2 99 0.0 N 13 19 7 10 - - 0.0
 
Date/Time
EST
Temp
°C
App
Temp
°C
Dew
Point
°C
Rel
Hum
%
Delta-T
°C
Wind Press
QNH
hPa
Press
MSL
hPa
Rain since
9am
mm
Dir  Spd
km/h
Gust
km/h
Spd
kts
Gust
kts
25/11:30pm 1.4 -2.5 1.3 99 0.0 N 11 19 6 10 - - 0.0
25/11:00pm 1.7 -2.1 1.6 99 0.0 N 11 17 6 9 - - 0.0
25/10:30pm 1.9 -1.5 1.6 98 0.1 N 9 13 5 7 - - 0.0
25/10:00pm 2.3 -0.7 2.0 98 0.1 NNW 7 11 4 6 - - 0.0
25/09:30pm 2.8 0.1 2.5 98 0.1 N 6 9 3 5 - - 0.0
25/09:00pm 2.9 0.0 2.6 98 0.1 N 7 11 4 6 - - 0.0
25/08:30pm 3.1 0.4 2.7 97 0.2 N 6 9 3 5 - - 0.0
25/08:00pm 3.2 0.5 2.8 97 0.2 N 6 9 3 5 - - 0.0
25/07:30pm 3.3 0.6 2.7 96 0.3 NNE 6 9 3 5 - - 0.0
25/07:00pm 3.3 0.4 2.6 95 0.3 NNE 7 9 4 5 - - 0.0
25/06:30pm 3.4 0.5 2.7 95 0.3 N 7 9 4 5 - - 0.0
25/06:00pm 3.4 0.7 2.7 95 0.3 NNE 6 7 3 4 - - 0.0
25/05:30pm 3.5 2.0 2.8 95 0.3 CALM 0 0 0 0 - - 0.0
25/05:00pm 3.9 2.1 3.2 95 0.3 NNW 2 6 1 3 - - 0.0
25/04:30pm 4.2 2.8 3.3 94 0.4 CALM 0 6 0 3 - - 0.0
25/04:00pm 4.3 2.9 3.6 95 0.3 CALM 0 9 0 5 - - 0.0
25/03:30pm 4.4 2.7 4.0 97 0.2 WNW 2 7 1 4 - - 0.0
25/03:00pm 4.2 2.5 3.9 98 0.1 WNW 2 6 1 3 - - 0.0
25/02:30pm 4.5 1.9 4.4 99 0.0 WNW 7 104 4 56 - - 0.0
25/02:29pm 4.5 2.1 4.4 99 0.0 WNW 6 104 3 56 - - 0.0
25/02:00pm 4.3 1.7 4.2 99 0.0 SW 7 13 4 7 - - 0.0
25/01:30pm 3.6 0.9 3.5 99 0.0 WSW 7 13 4 7 - - 0.0
25/01:00pm 3.5 0.9 3.4 99 0.0 WSW 6 9 3 5 - - 0.0
25/12:30pm 4.0 0.6 3.9 99 0.0 SSW 11 15 6 8 - - 0.0
25/12:00pm 3.2 0.4 3.1 99 0.0 SSW 7 9 4 5 - - 0.0
25/11:41am 2.8 -6.5 2.7 99 0.0 WSW 41 106 22 57 - - 0.0
25/11:39am 2.8 -5.8 2.7 99 0.0 W 37 106 20 57 - - 0.0
25/11:36am 2.8 -4.5 2.7 99 0.0 W 30 106 16 57 - - 0.0
25/11:35am 2.7 -4.6 2.6 99 0.0 W 30 106 16 57 - - 0.0
25/11:34am 2.7 -4.6 2.6 99 0.0 W 30 106 16 57 - - 0.0
25/11:33am 2.7 -2.7 2.6 99 0.0 W 20 106 11 57 - - 0.0
25/11:30am 3.3 0.5 3.2 99 0.0 WSW 7 17 4 9 - - 0.0
25/11:00am 3.3 0.1 3.2 99 0.0 SW 9 19 5 10 - - 0.0
25/10:30am 2.7 -1.7 2.6 99 0.0 SW 15 20 8 11 - - 0.0
25/10:00am 2.3 -1.8 2.2 99 0.0 SW 13 17 7 9 - - 0.0
25/09:30am 1.8 -2.4 1.7 99 0.0 SW 13 19 7 10 - - 0.0
25/09:00am 1.5 -3.5 1.4 99 0.0 SW 17 24 9 13 - - 1.0
25/08:30am 1.3 -4.3 1.2 99 0.0 SW 20 30 11 16 - - 0.0
25/08:00am 1.1 -4.5 1.0 99 0.0 SW 20 30 11 16 - - 0.0
25/07:30am 0.7 -5.0 0.6 99 0.0 SW 20 33 11 18 - - 0.0
25/07:00am 0.6 -5.1 0.5 99 0.0 SW 20 30 11 16 - - 0.0
25/06:30am 0.4 -5.3 0.3 99 0.0 SW 20 30 11 16 - - 0.0
25/06:00am 0.1 -5.7 0.0 99 0.0 SW 20 28 11 15 - - 0.0
25/05:30am 0.2 -5.9 0.1 99 0.0 SW 22 32 12 17 - - 0.0
25/05:00am 0.1 -5.7 0.0 99 0.0 SW 20 32 11 17 - - 0.0
25/04:30am 0.3 -5.8 0.2 99 0.0 SW 22 32 12 17 - - 0.0
25/04:00am 0.1 -6.1 0.0 99 0.0 SW 22 33 12 18 - - 0.0
25/03:30am 0.0 -6.2 -0.1 99 0.0 SW 22 32 12 17 - - 0.0
25/03:00am 0.0 -5.8 -0.1 99 0.0 WSW 20 30 11 16 - - 0.0
25/02:30am -0.1 -6.3 -0.2 99 0.0 WSW 22 35 12 19 - - 0.0
25/02:00am -0.2 -6.8 -0.3 99 0.0 WSW 24 33 13 18 - - 0.0
25/01:30am -0.4 -7.0 -0.5 99 0.0 WSW 24 35 13 19 - - 0.0
25/01:00am -0.2 -6.8 -0.3 99 0.0 SW 24 32 13 17 - - 0.0
25/12:30am -0.1 -7.1 -0.2 99 0.0 SW 26 39 14 21 - - 0.0
25/12:00am 0.0 -6.6 -0.1 99 0.0 SW 24 35 13 19 - - 0.0
 
Date/Time
EST
Temp
°C
App
Temp
°C
Dew
Point
°C
Rel
Hum
%
Delta-T
°C
Wind Press
QNH
hPa
Press
MSL
hPa
Rain since
9am
mm
Dir  Spd
km/h
Gust
km/h
Spd
kts
Gust
kts
24/11:30pm 0.0 -6.6 -0.1 99 0.0 SW 24 39 13 21 - - 0.0
24/11:00pm 0.0 -7.3 -0.1 99 0.0 SW 28 46 15 25 - - 0.0
24/10:30pm -0.1 -7.4 -0.2 99 0.0 SW 28 41 15 22 - - 0.0
24/10:00pm -0.1 -7.4 -0.2 99 0.0 SW 28 37 15 20 - - 0.0
24/09:50pm -0.2 -7.5 -0.3 99 0.0 SW 28 50 15 27 - - 0.0
24/09:30pm -0.2 -8.9 -0.3 99 0.0 WSW 35 50 19 27 - - 0.0
24/09:18pm -0.2 -7.9 -0.3 99 0.0 WSW 30 48 16 26 - - 0.0
24/09:00pm -0.4 -8.2 -0.5 99 0.0 SW 30 43 16 23 - - 0.0
24/08:30pm -0.4 -8.2 -0.5 99 0.0 SW 30 41 16 22 - - 0.0
24/08:00pm -0.6 -8.4 -0.7 99 0.0 SW 30 48 16 26 - - 0.0
24/07:30pm -0.4 -7.0 -0.5 99 0.0 SW 24 33 13 18 - - 0.0
24/07:03pm -0.4 -7.8 -0.5 99 0.0 SW 28 46 15 25 - - 0.0
24/07:00pm -0.4 -8.2 -0.5 99 0.0 SW 30 46 16 25 - - 0.0
24/06:30pm -0.4 -8.2 -0.5 99 0.0 SW 30 48 16 26 - - 0.0
24/06:02pm -0.4 -8.2 -0.5 99 0.0 SW 30 48 16 26 - - 0.0
24/06:00pm -0.3 -8.0 -0.4 99 0.0 SW 30 43 16 23 - - 0.0
24/05:33pm -0.1 -8.8 -0.2 99 0.0 SW 35 54 19 29 - - 0.0
24/05:30pm -0.1 -8.8 -0.2 99 0.0 SW 35 50 19 27 - - 0.0
24/05:00pm -0.1 -8.2 -0.2 99 0.0 SW 32 50 17 27 - - 0.0
24/04:30pm -0.2 -8.3 -0.3 99 0.0 SW 32 56 17 30 - - 0.0
24/04:00pm -0.4 -9.2 -1.0 96 0.2 SW 35 56 19 30 - - 0.0
24/03:30pm 1.9 -5.3 0.4 90 0.6 WSW 28 56 15 30 - - 0.0
24/03:00pm 2.2 -6.0 0.6 89 0.6 WSW 33 52 18 28 - - 0.0
24/02:30pm 1.7 -5.9 0.8 94 0.4 WSW 30 54 16 29 - - 0.0
24/02:04pm 1.4 -5.7 1.1 98 0.1 WSW 28 56 15 30 - - 0.0
24/02:00pm 1.6 -4.7 1.3 98 0.1 WSW 24 48 13 26 - - 0.0
24/01:30pm 0.7 -6.9 0.3 97 0.2 WSW 30 48 16 26 - - 0.0
24/01:00pm 1.8 -5.6 1.7 99 0.0 WSW 30 61 16 33 - - 0.0
24/12:30pm 1.4 -6.7 1.3 99 0.0 WSW 33 56 18 30 - - 0.0
24/12:17pm 1.5 -6.3 1.4 99 0.0 WSW 32 50 17 27 - - 0.0
24/12:00pm 1.4 -6.5 1.3 99 0.0 WSW 32 48 17 26 - - 0.0
24/11:45am 1.2 -6.7 1.1 99 0.0 WSW 32 50 17 27 - - 0.0
24/11:30am 1.1 -6.4 1.0 99 0.0 WSW 30 44 16 24 - - 0.0
24/11:00am 1.0 -6.2 0.9 99 0.0 WSW 28 48 15 26 - - 0.0
24/10:30am 0.8 -6.4 0.7 99 0.0 WSW 28 48 15 26 - - 0.0
24/10:18am 0.5 -6.7 0.4 99 0.0 WSW 28 48 15 26 - - 0.0
24/10:00am 0.5 -5.6 0.4 99 0.0 WSW 22 35 12 19 - - 0.0
24/09:30am 0.4 -5.3 0.3 99 0.0 WSW 20 28 11 15 - - 0.0
24/09:00am 0.3 -5.8 0.2 99 0.0 W 22 35 12 19 - - 11.4
24/08:30am 0.5 -4.7 0.4 99 0.0 W 17 26 9 14 - - 11.4
24/08:00am 0.4 -4.4 0.3 99 0.0 W 15 22 8 12 - - 11.4
24/07:30am 0.6 -3.4 0.5 99 0.0 W 11 20 6 11 - - 11.4
24/07:00am 0.4 -3.6 0.3 99 0.0 W 11 19 6 10 - - 11.4
24/06:30am 0.5 -3.5 0.4 99 0.0 WNW 11 24 6 13 - - 11.2
24/06:00am 0.7 -3.3 0.6 99 0.0 WNW 11 19 6 10 - - 11.2
24/05:30am 0.7 -2.9 0.6 99 0.0 WNW 9 17 5 9 - - 11.2
24/05:00am 0.7 -3.3 0.6 99 0.0 NW 11 19 6 10 - - 11.2
24/04:30am 0.7 -2.9 0.6 99 0.0 NNW 9 17 5 9 - - 11.2
24/04:00am 0.7 -2.9 0.6 99 0.0 NW 9 17 5 9 - - 11.0
24/03:30am 0.7 -3.7 0.6 99 0.0 WNW 13 26 7 14 - - 11.0
24/03:00am 0.5 -4.7 0.4 99 0.0 W 17 28 9 15 - - 11.0
24/02:30am 0.4 -3.2 0.3 99 0.0 NW 9 20 5 11 - - 10.8
24/02:00am 1.7 -2.1 1.6 99 0.0 NNE 11 28 6 15 - - 10.8
24/01:30am 2.1 -1.3 2.0 99 0.0 N 9 17 5 9 - - 10.4
24/01:00am 2.1 -1.3 2.0 99 0.0 N 9 20 5 11 - - 10.4
24/12:30am 2.1 -1.7 2.0 99 0.0 WNW 11 20 6 11 - - 10.4
24/12:00am 2.2 -1.2 2.1 99 0.0 NNW 9 17 5 9 - - 10.4

Other Formats:

Comma delimited format used in spreadsheet applications
http://www.bom.gov.au/fwo/IDV60801/IDV60801.94835.axf

JavaScript Object Notation format (JSON) in row-major order
http://www.bom.gov.au/fwo/IDV60801/IDV60801.94835.json